createdAt,value
2018-09-14T00:01:42.162Z,19.20
2018-09-14T00:04:12.398Z,19.20
2018-09-14T00:06:43.085Z,19.23
2018-09-14T00:09:14.405Z,19.17
2018-09-14T00:12:16.081Z,19.23
2018-09-14T00:14:46.369Z,19.23
2018-09-14T00:17:17.096Z,19.35
2018-09-14T00:19:47.624Z,19.32
2018-09-14T00:22:18.576Z,19.44
2018-09-14T00:24:49.193Z,18.73
2018-09-14T00:27:19.598Z,18.93
2018-09-14T00:29:50.314Z,18.77
2018-09-14T00:32:21.834Z,18.51
2018-09-14T00:34:51.987Z,17.98
2018-09-14T00:37:22.241Z,18.12
2018-09-14T00:39:52.931Z,17.54
2018-09-14T00:42:24.539Z,17.70
2018-09-14T00:44:55.274Z,17.81
2018-09-14T00:47:25.893Z,17.99
2018-09-14T00:49:56.728Z,17.95
2018-09-14T00:52:27.985Z,17.95
2018-09-14T00:54:57.991Z,17.56
2018-09-14T00:57:28.443Z,17.21
2018-09-14T00:59:59.005Z,17.61
2018-09-14T01:02:29.786Z,17.84
2018-09-14T01:05:00.526Z,17.74
2018-09-14T01:07:31.052Z,17.58
2018-09-14T01:10:01.269Z,17.88
2018-09-14T01:12:31.934Z,18.27
2018-09-14T01:15:02.491Z,18.33
2018-09-14T01:17:33.054Z,18.33
2018-09-14T01:20:03.840Z,18.33
2018-09-14T01:22:34.918Z,18.29
2018-09-14T01:25:05.494Z,18.16
2018-09-14T01:27:35.881Z,17.19
2018-09-14T01:30:06.669Z,17.63
2018-09-14T01:32:37.985Z,18.14
2018-09-14T01:35:13.048Z,18.21
2018-09-14T01:37:43.829Z,18.25
2018-09-14T01:40:14.246Z,18.21
2018-09-14T01:42:45.377Z,17.90
2018-09-14T01:45:15.934Z,18.07
2018-09-14T01:47:46.651Z,17.57
2018-09-14T01:50:17.267Z,17.93
2018-09-14T01:52:48.983Z,18.11
2018-09-14T01:55:19.463Z,18.06
2018-09-14T01:59:14.211Z,18.12
2018-09-14T02:01:44.478Z,18.10
2018-09-14T02:04:15.006Z,18.08
2018-09-14T02:06:45.197Z,17.90
2018-09-14T02:09:15.533Z,18.07
2018-09-14T02:11:46.186Z,18.13
2018-09-14T02:14:16.403Z,18.03
2018-09-14T02:16:47.155Z,17.99
2018-09-14T02:19:17.658Z,18.01
2018-09-14T02:21:49.371Z,17.78
2018-09-14T02:24:19.908Z,17.36
2018-09-14T02:26:50.615Z,17.49
2018-09-14T02:29:21.003Z,17.81
2018-09-14T02:31:52.028Z,17.87
2018-09-14T02:34:22.592Z,17.27
2018-09-14T02:36:53.341Z,16.65
2018-09-14T02:39:24.055Z,17.19
2018-09-14T02:41:54.969Z,17.58
2018-09-14T02:44:25.527Z,17.76
2018-09-14T02:46:56.141Z,17.78
2018-09-14T02:49:26.584Z,17.82
2018-09-14T02:51:58.117Z,17.78
2018-09-14T02:54:28.869Z,17.64
2018-09-14T02:56:59.518Z,17.51
2018-09-14T02:59:30.282Z,17.51
2018-09-14T03:02:00.871Z,17.29
2018-09-14T03:04:31.390Z,17.23
2018-09-14T03:07:02.018Z,17.00
2018-09-14T03:09:32.551Z,17.02
2018-09-14T03:12:03.692Z,17.22
2018-09-14T03:14:34.224Z,17.35
2018-09-14T03:17:05.103Z,17.40
2018-09-14T03:19:35.471Z,17.21
2018-09-14T03:22:06.577Z,17.06
2018-09-14T03:24:36.965Z,17.21
2018-09-14T03:27:07.053Z,17.35
2018-09-14T03:29:37.665Z,17.36
2018-09-14T03:32:08.829Z,17.40
2018-09-14T03:34:39.163Z,17.48
2018-09-14T03:37:09.341Z,17.36
2018-09-14T03:39:39.657Z,17.34
2018-09-14T03:42:10.870Z,17.40
2018-09-14T03:44:41.358Z,17.22
2018-09-14T03:47:11.623Z,16.39
2018-09-14T03:49:41.885Z,16.06
2018-09-14T03:52:12.583Z,15.28
2018-09-14T03:54:42.729Z,16.06
2018-09-14T03:57:13.129Z,15.85
2018-09-14T03:59:43.527Z,15.60
2018-09-14T04:02:14.650Z,15.74
2018-09-14T04:04:45.191Z,16.16
2018-09-14T04:07:15.785Z,16.20
2018-09-14T04:09:46.069Z,16.33
2018-09-14T04:12:17.246Z,16.39
2018-09-14T04:14:47.797Z,16.09
2018-09-14T04:17:18.554Z,16.14
2018-09-14T04:19:48.868Z,16.04
2018-09-14T04:22:19.774Z,16.18
2018-09-14T04:24:49.903Z,15.90
2018-09-14T04:27:20.335Z,15.88
2018-09-14T04:29:50.666Z,15.82
2018-09-14T04:32:21.534Z,16.12
2018-09-14T04:34:51.781Z,16.10
2018-09-14T04:37:22.080Z,15.56
2018-09-14T04:39:52.849Z,15.69
2018-09-14T04:42:23.744Z,15.80
2018-09-14T04:44:54.106Z,16.08
2018-09-14T04:47:24.551Z,16.65
2018-09-14T04:49:55.197Z,16.84
2018-09-14T04:52:26.526Z,16.46
2018-09-14T04:54:56.832Z,16.82
2018-09-14T04:57:27.185Z,17.04
2018-09-14T04:59:57.564Z,16.68
2018-09-14T05:02:28.377Z,16.47
2018-09-14T05:04:59.196Z,16.36
2018-09-14T05:07:29.501Z,16.43
2018-09-14T05:10:00.081Z,17.33
2018-09-14T05:12:30.945Z,17.83
2018-09-14T05:15:01.287Z,18.37
2018-09-14T05:17:32.049Z,18.58
2018-09-14T05:20:02.234Z,18.40
2018-09-14T05:22:33.042Z,18.03
2018-09-14T05:25:03.522Z,17.81
2018-09-14T05:27:33.750Z,16.82
2018-09-14T05:30:03.875Z,17.63
2018-09-14T05:32:34.797Z,18.49
2018-09-14T05:35:05.031Z,19.04
2018-09-14T05:37:35.313Z,19.08
2018-09-14T05:40:05.947Z,19.30
2018-09-14T05:42:36.419Z,19.57
2018-09-14T05:45:06.740Z,19.74
2018-09-14T05:47:37.155Z,19.67
2018-09-14T05:50:07.696Z,19.24
2018-09-14T05:52:38.896Z,19.52
2018-09-14T05:55:09.235Z,19.48
2018-09-14T05:57:39.787Z,19.53
2018-09-14T06:00:10.125Z,19.59
2018-09-14T06:02:41.274Z,18.93
2018-09-14T06:05:11.673Z,19.26
2018-09-14T06:07:41.869Z,19.49
2018-09-14T06:10:12.114Z,19.10
2018-09-14T06:12:42.736Z,19.21
2018-09-14T06:15:13.307Z,19.48
2018-09-14T06:17:44.184Z,19.64
2018-09-14T06:20:14.662Z,18.95
2018-09-14T06:22:45.877Z,18.99
2018-09-14T06:25:16.307Z,20.20
2018-09-14T06:27:46.063Z,20.63
2018-09-14T06:30:16.030Z,21.15
2018-09-14T06:32:46.950Z,20.61
2018-09-14T06:35:16.635Z,21.71
2018-09-14T06:37:46.514Z,21.34
2018-09-14T06:40:16.410Z,22.03
2018-09-14T06:42:46.214Z,21.83
2018-09-14T06:45:15.991Z,22.56
2018-09-14T06:47:45.851Z,22.99
2018-09-14T06:51:18.258Z,23.25
2018-09-14T06:53:48.182Z,24.25
2018-09-14T06:56:24.649Z,24.36
2018-09-14T06:58:54.449Z,23.55
2018-09-14T07:01:24.452Z,23.38
2018-09-14T07:03:54.544Z,24.01
2018-09-14T07:06:24.452Z,24.23
2018-09-14T07:08:54.200Z,24.52
2018-09-14T07:11:24.067Z,25.00
2018-09-14T07:13:53.906Z,24.29
2018-09-14T07:16:23.717Z,24.34
2018-09-14T07:18:53.598Z,24.92
2018-09-14T07:21:23.268Z,26.20
2018-09-14T07:23:52.990Z,25.51
2018-09-14T07:26:22.720Z,26.36
2018-09-14T07:28:52.399Z,26.11
2018-09-14T07:31:22.152Z,25.96
2018-09-14T07:33:51.918Z,25.85
2018-09-14T07:36:21.727Z,26.10
2018-09-14T07:38:51.536Z,26.93
2018-09-14T07:41:21.338Z,27.29
2018-09-14T07:43:51.062Z,28.28
2018-09-14T07:46:21.424Z,28.49
2018-09-14T07:48:51.592Z,28.55
2018-09-14T07:51:21.998Z,28.77
2018-09-14T07:53:52.562Z,29.35
2018-09-14T07:56:22.931Z,29.20
2018-09-14T07:58:57.126Z,28.87
2018-09-14T08:01:27.674Z,28.59
2018-09-14T08:03:58.026Z,29.32
2018-09-14T08:06:28.417Z,30.79
2018-09-14T08:08:58.625Z,30.01
2018-09-14T08:11:29.060Z,29.89
2018-09-14T08:13:59.392Z,30.61
2018-09-14T08:16:29.754Z,30.53
2018-09-14T08:19:03.863Z,30.88
2018-09-14T08:21:34.066Z,30.94
2018-09-14T08:24:04.392Z,31.38
2018-09-14T08:26:34.727Z,31.78
2018-09-14T08:29:05.735Z,32.36
2018-09-14T08:31:35.965Z,31.82
2018-09-14T08:34:06.472Z,32.31
2018-09-14T08:36:36.742Z,31.87
2018-09-14T08:39:11.361Z,31.87
2018-09-14T08:41:41.956Z,32.43
2018-09-14T08:44:12.482Z,32.50
2018-09-14T08:46:42.686Z,31.12
2018-09-14T08:49:12.991Z,31.93
2018-09-14T08:51:43.351Z,32.06
2018-09-14T08:54:13.930Z,33.16
2018-09-14T08:56:44.546Z,32.25
2018-09-14T08:59:15.300Z,32.96
2018-09-14T09:01:45.690Z,33.62
2018-09-14T09:04:16.124Z,33.84
2018-09-14T09:06:45.986Z,35.04
2018-09-14T09:09:16.667Z,34.31
2018-09-14T09:11:46.526Z,33.30
2018-09-14T09:14:16.274Z,33.82
2018-09-14T09:16:45.953Z,33.70
2018-09-14T09:19:16.219Z,34.69
2018-09-14T09:21:46.401Z,33.92
2018-09-14T09:24:16.350Z,33.35
2018-09-14T09:26:46.794Z,34.35
2018-09-14T09:29:17.674Z,34.49
2018-09-14T09:31:47.423Z,34.83
2018-09-14T09:34:17.764Z,33.75
2018-09-14T09:36:47.510Z,34.77
2018-09-14T09:39:17.462Z,34.99
2018-09-14T09:41:47.195Z,35.76
2018-09-14T09:44:16.932Z,34.93
2018-09-14T09:46:46.731Z,35.35
2018-09-14T09:49:16.442Z,35.65
2018-09-14T09:51:46.252Z,36.06
2018-09-14T09:54:16.117Z,35.23
2018-09-14T09:56:46.133Z,35.90
2018-09-14T09:59:15.844Z,35.90
2018-09-14T10:01:50.790Z,35.26
2018-09-14T10:04:26.151Z,35.89
2018-09-14T10:06:57.085Z,35.30
2018-09-14T10:09:27.783Z,36.44
2018-09-14T10:16:51.025Z,37.35
2018-09-14T10:19:21.521Z,35.71
2018-09-14T10:21:52.186Z,35.76
2018-09-14T10:24:21.927Z,37.04
2018-09-14T10:26:51.738Z,37.46
2018-09-14T10:29:21.454Z,37.14
2018-09-14T10:31:51.260Z,35.64
2018-09-14T10:34:21.019Z,34.80
2018-09-14T10:36:50.869Z,36.10
2018-09-14T10:39:20.671Z,35.78
2018-09-14T10:41:50.479Z,36.53
2018-09-14T10:44:20.254Z,37.29
2018-09-14T10:46:49.935Z,37.37
2018-09-14T10:49:19.570Z,36.72
2018-09-14T10:51:49.344Z,36.72
2018-09-14T10:54:19.348Z,36.68
2018-09-14T10:56:49.675Z,35.82
2018-09-14T10:59:19.422Z,35.33
2018-09-14T11:01:49.147Z,35.94
2018-09-14T11:04:19.040Z,34.63
2018-09-14T11:06:48.717Z,36.60
2018-09-14T11:09:18.628Z,36.48
2018-09-14T11:11:48.518Z,38.13
2018-09-14T11:14:18.410Z,39.13
2018-09-14T11:16:48.098Z,38.05
2018-09-14T11:19:17.901Z,38.53
2018-09-14T11:21:48.094Z,38.10
2018-09-14T11:24:17.893Z,38.35
2018-09-14T11:26:47.641Z,37.73
2018-09-14T11:29:17.466Z,37.24
2018-09-14T11:31:47.243Z,36.52
2018-09-14T11:34:16.990Z,35.10
2018-09-14T11:36:46.942Z,33.94
2018-09-14T11:39:17.003Z,33.85
2018-09-14T11:41:47.530Z,33.93
2018-09-14T11:44:18.981Z,33.97
2018-09-14T11:46:49.272Z,32.06
2018-09-14T11:49:19.562Z,32.23
2018-09-14T11:51:49.775Z,31.84
2018-09-14T11:54:20.480Z,31.67
2018-09-14T11:56:50.895Z,32.13
2018-09-14T11:59:21.576Z,32.78
2018-09-14T12:01:52.360Z,32.93
2018-09-14T12:04:23.206Z,32.58
2018-09-14T12:06:53.649Z,32.42
2018-09-14T12:09:24.077Z,32.66
2018-09-14T12:11:54.391Z,33.50
2018-09-14T12:14:25.187Z,33.96
2018-09-14T12:16:55.006Z,34.91
2018-09-14T12:19:24.677Z,34.08
2018-09-14T12:21:54.330Z,33.25
2018-09-14T12:24:24.092Z,32.69
2018-09-14T12:26:53.717Z,34.09
2018-09-14T12:29:23.334Z,35.06
2018-09-14T12:31:53.102Z,34.82
2018-09-14T12:34:22.751Z,32.41
2018-09-14T12:36:52.329Z,32.13
2018-09-14T12:39:22.190Z,33.62
2018-09-14T12:41:51.835Z,33.48
2018-09-14T12:44:22.021Z,32.44
2018-09-14T12:46:52.425Z,31.10
2018-09-14T12:49:22.886Z,30.72
2018-09-14T12:51:53.343Z,31.23
2018-09-14T12:54:24.385Z,31.18
2018-09-14T12:56:54.771Z,31.26
2018-09-14T12:59:25.384Z,31.32
2018-09-14T13:01:55.684Z,30.89
2018-09-14T13:04:26.753Z,31.38
2018-09-14T13:06:56.920Z,30.95
2018-09-14T13:09:27.247Z,30.74
2018-09-14T13:11:57.770Z,31.27
2018-09-14T13:14:27.533Z,31.16
2018-09-14T13:17:00.336Z,31.26
2018-09-14T13:19:31.176Z,31.66
2018-09-14T13:22:00.978Z,31.32
2018-09-14T13:24:32.298Z,32.36
2018-09-14T13:27:02.645Z,32.37
2018-09-14T13:29:32.328Z,31.80
2018-09-14T13:32:02.190Z,31.64
2018-09-14T13:34:32.081Z,30.87
2018-09-14T13:37:01.858Z,30.57
2018-09-14T13:39:31.658Z,31.03
2018-09-14T13:42:01.385Z,30.69
2018-09-14T13:44:31.118Z,30.80
2018-09-14T13:47:01.112Z,30.16
2018-09-14T13:49:30.832Z,30.36
2018-09-14T13:52:00.689Z,30.91
2018-09-14T13:54:30.749Z,30.81
2018-09-14T13:57:00.630Z,30.86
2018-09-14T13:59:30.291Z,30.48
2018-09-14T14:02:00.117Z,30.26
2018-09-14T14:04:29.883Z,29.74
2018-09-14T14:06:59.655Z,29.22
2018-09-14T14:09:29.442Z,29.08
2018-09-14T14:11:59.180Z,29.19
2018-09-14T14:14:28.959Z,28.44
2018-09-14T14:20:46.133Z,28.69
2018-09-14T14:23:16.425Z,28.54
2018-09-14T14:25:46.200Z,28.74
2018-09-14T14:28:16.102Z,28.08
2018-09-14T14:30:45.980Z,28.15
2018-09-14T14:33:15.624Z,28.12
2018-09-14T14:35:45.460Z,28.05
2018-09-14T14:38:15.203Z,28.02
2018-09-14T14:40:46.010Z,28.11
2018-09-14T14:43:15.734Z,28.22
2018-09-14T14:45:45.585Z,27.96
2018-09-14T14:48:15.440Z,27.97
2018-09-14T14:50:45.185Z,28.05
2018-09-14T14:53:14.965Z,28.01
2018-09-14T14:55:44.680Z,28.22
2018-09-14T14:58:14.420Z,27.66
2018-09-14T15:00:44.209Z,28.21
2018-09-14T15:03:13.957Z,27.98
2018-09-14T15:05:43.816Z,27.84
2018-09-14T15:08:13.630Z,28.02
2018-09-14T15:10:43.438Z,28.21
2018-09-14T15:13:13.318Z,28.37
2018-09-14T15:15:43.206Z,28.42
2018-09-14T15:18:12.997Z,27.95
2018-09-14T15:20:42.881Z,28.23
2018-09-14T15:23:43.920Z,28.17
2018-09-14T15:26:13.686Z,28.12
2018-09-14T15:28:43.485Z,28.16
2018-09-14T15:31:13.806Z,27.73
2018-09-14T15:33:44.062Z,27.83
2018-09-14T15:36:14.272Z,27.59
2018-09-14T15:38:44.373Z,27.80
2018-09-14T15:41:14.915Z,27.69
2018-09-14T15:43:45.516Z,27.93
2018-09-14T15:46:16.861Z,28.04
2018-09-14T15:48:46.634Z,27.93
2018-09-14T15:51:16.632Z,27.94
2018-09-14T15:53:47.298Z,27.81
2018-09-14T15:56:18.780Z,27.83
2018-09-14T15:58:49.225Z,27.34
2018-09-14T16:01:19.633Z,26.83
2018-09-14T16:03:49.828Z,26.59
2018-09-14T16:06:20.232Z,26.66
2018-09-14T16:08:50.402Z,26.88
2018-09-14T16:11:20.931Z,27.02
2018-09-14T16:13:51.372Z,27.04
2018-09-14T16:16:22.461Z,27.07
2018-09-14T16:18:52.821Z,26.88
2018-09-14T16:21:23.129Z,26.10
2018-09-14T16:23:53.945Z,26.23
2018-09-14T16:26:25.345Z,26.44
2018-09-14T16:28:55.833Z,26.54
2018-09-14T16:31:26.462Z,26.14
2018-09-14T16:33:57.104Z,26.24
2018-09-14T16:36:30.935Z,26.37
2018-09-14T16:39:01.353Z,26.36
2018-09-14T16:41:31.876Z,26.29
2018-09-14T16:44:02.771Z,26.40
2018-09-14T16:46:33.719Z,26.16
2018-09-14T16:49:03.941Z,26.11
2018-09-14T16:51:34.391Z,26.11
2018-09-14T16:54:04.838Z,25.85
2018-09-14T16:56:35.963Z,25.85
2018-09-14T16:59:06.536Z,25.73
2018-09-14T17:01:37.033Z,25.80
2018-09-14T17:04:07.375Z,25.73
2018-09-14T17:06:38.185Z,25.71
2018-09-14T17:09:10.090Z,25.59
2018-09-14T17:11:40.778Z,25.46
2018-09-14T17:14:11.603Z,25.05
2018-09-14T17:16:43.248Z,25.14
2018-09-14T17:19:13.976Z,24.98
2018-09-14T17:21:44.599Z,24.99
2018-09-14T17:24:15.368Z,24.99
2018-09-14T17:26:46.009Z,24.83
2018-09-14T17:29:16.026Z,24.98
2018-09-14T17:31:46.650Z,25.00
2018-09-14T17:34:17.178Z,24.62
2018-09-14T17:36:48.091Z,24.45
2018-09-14T17:39:18.341Z,24.67
2018-09-14T17:41:48.698Z,24.71
2018-09-14T17:44:19.704Z,24.69
2018-09-14T17:46:50.803Z,24.66
2018-09-14T17:49:21.091Z,24.66
2018-09-14T17:51:51.806Z,24.25
2018-09-14T17:54:22.009Z,24.30
2018-09-14T17:56:53.019Z,24.24
2018-09-14T17:59:23.273Z,24.23
2018-09-14T18:01:53.489Z,23.87
2018-09-14T18:04:23.910Z,23.26
2018-09-14T18:06:54.616Z,22.78
2018-09-14T18:09:25.073Z,23.16
2018-09-14T18:11:55.496Z,23.19
2018-09-14T18:14:25.747Z,23.44
2018-09-14T18:16:57.378Z,23.24
2018-09-14T18:19:27.782Z,23.24
2018-09-14T18:21:57.924Z,23.06
2018-09-14T18:24:28.594Z,22.60
2018-09-14T18:26:59.785Z,22.84
2018-09-14T18:29:30.334Z,22.58
2018-09-14T18:32:00.758Z,22.80
2018-09-14T18:34:30.837Z,22.94
2018-09-14T18:37:02.705Z,23.25
2018-09-14T18:39:33.207Z,23.24
2018-09-14T18:42:03.693Z,23.01
2018-09-14T18:44:34.223Z,22.46
2018-09-14T18:47:05.670Z,22.86
2018-09-14T18:49:35.984Z,22.51
2018-09-14T18:52:06.427Z,22.58
2018-09-14T18:54:36.543Z,22.13
2018-09-14T18:57:07.002Z,21.85
2018-09-14T18:59:37.580Z,22.36
2018-09-14T19:02:07.990Z,22.30
2018-09-14T19:04:38.705Z,22.01
2018-09-14T19:07:09.581Z,21.94
2018-09-14T19:09:40.037Z,22.31
2018-09-14T19:12:10.576Z,22.41
2018-09-14T19:14:40.738Z,22.83
2018-09-14T19:17:11.798Z,22.96
2018-09-14T19:19:42.215Z,22.94
2018-09-14T19:22:12.543Z,23.18
2018-09-14T19:24:43.081Z,22.70
2018-09-14T19:27:13.711Z,22.53
2018-09-14T19:29:44.179Z,22.69
2018-09-14T19:32:14.922Z,22.85
2018-09-14T19:34:44.966Z,23.01
2018-09-14T19:37:15.923Z,23.05
2018-09-14T19:39:46.209Z,23.12
2018-09-14T19:42:16.459Z,23.18
2018-09-14T19:44:46.795Z,23.13
2018-09-14T19:47:18.411Z,23.18
2018-09-14T19:49:49.099Z,23.17
2018-09-14T19:52:19.162Z,22.94
2018-09-14T19:54:49.338Z,22.77
2018-09-14T19:57:20.195Z,22.68
2018-09-14T19:59:50.635Z,22.70
2018-09-14T20:02:20.911Z,22.77
2018-09-14T20:04:51.067Z,22.79
2018-09-14T20:07:22.764Z,22.95
2018-09-14T20:09:53.267Z,22.97
2018-09-14T20:12:23.351Z,22.96
2018-09-14T20:14:53.736Z,22.92
2018-09-14T20:17:25.275Z,22.65
2018-09-14T20:19:55.793Z,22.81
2018-09-14T20:22:26.541Z,22.86
2018-09-14T20:24:57.398Z,22.94
2018-09-14T20:27:28.049Z,22.91
2018-09-14T20:29:58.453Z,22.95
2018-09-14T20:32:28.986Z,22.40
2018-09-14T20:34:59.470Z,22.63
2018-09-14T20:37:30.598Z,22.71
2018-09-14T20:40:01.156Z,22.76
2018-09-14T20:42:32.046Z,22.75
2018-09-14T20:45:02.672Z,22.62
2018-09-14T20:47:33.704Z,22.66
2018-09-14T20:50:04.082Z,22.71
2018-09-14T20:52:34.382Z,22.72
2018-09-14T20:55:05.067Z,22.66
2018-09-14T20:57:35.693Z,22.64
2018-09-14T21:00:06.229Z,22.57
2018-09-14T21:02:36.750Z,22.51
2018-09-14T21:05:07.382Z,22.53
2018-09-14T21:07:38.429Z,22.42
2018-09-14T21:10:08.911Z,22.39
2018-09-14T21:12:39.178Z,22.46
2018-09-14T21:15:09.252Z,22.49
2018-09-14T21:17:40.251Z,22.47
2018-09-14T21:20:10.386Z,22.46
2018-09-14T21:22:41.261Z,22.38
2018-09-14T21:25:12.104Z,22.39
2018-09-14T21:27:42.578Z,22.37
2018-09-14T21:30:12.770Z,22.27
2018-09-14T21:32:43.279Z,22.20
2018-09-14T21:35:13.528Z,22.14
2018-09-14T21:37:45.056Z,22.11
2018-09-14T21:40:15.395Z,22.02
2018-09-14T21:42:45.857Z,22.03
2018-09-14T21:45:16.106Z,21.99
2018-09-14T21:47:47.325Z,21.91
2018-09-14T21:50:17.561Z,21.67
2018-09-14T21:52:48.178Z,21.71
2018-09-14T21:55:18.702Z,21.65
2018-09-14T21:57:49.614Z,21.65
2018-09-14T22:01:53.992Z,21.70
2018-09-14T22:04:24.359Z,21.53
2018-09-14T22:06:54.735Z,21.51
2018-09-14T22:09:25.048Z,21.49
2018-09-14T22:11:55.524Z,21.33
2018-09-14T22:14:25.702Z,21.45
2018-09-14T22:16:56.069Z,21.42
2018-09-14T22:19:26.583Z,21.38
2018-09-14T22:21:56.824Z,21.09
2018-09-14T22:24:27.435Z,20.84
2018-09-14T22:26:58.538Z,20.59
2018-09-14T22:29:28.873Z,20.88
2018-09-14T22:31:59.206Z,20.98
2018-09-14T22:34:29.557Z,21.00
2018-09-14T22:37:00.466Z,21.06
2018-09-14T22:39:31.058Z,20.93
2018-09-14T22:42:01.447Z,20.81
2018-09-14T22:44:31.894Z,20.88
2018-09-14T22:47:03.618Z,20.85
2018-09-14T22:49:34.331Z,20.86
2018-09-14T22:52:04.875Z,20.77
2018-09-14T22:54:35.414Z,20.48
2018-09-14T22:57:06.537Z,20.41
2018-09-14T22:59:36.762Z,20.41
2018-09-14T23:02:07.174Z,20.52
2018-09-14T23:04:37.905Z,20.26
2018-09-14T23:07:08.791Z,20.39
2018-09-14T23:09:39.153Z,20.33
2018-09-14T23:12:09.429Z,19.84
2018-09-14T23:14:39.574Z,19.82
2018-09-14T23:17:09.954Z,20.15
2018-09-14T23:19:40.211Z,19.88
2018-09-14T23:22:10.682Z,20.04
2018-09-14T23:24:41.149Z,20.16
2018-09-14T23:27:12.196Z,20.29
2018-09-14T23:29:42.621Z,20.24
2018-09-14T23:32:12.881Z,20.19
2018-09-14T23:34:43.429Z,20.07
2018-09-14T23:37:14.633Z,20.10
2018-09-14T23:39:44.754Z,19.81
2018-09-14T23:42:14.863Z,19.60
2018-09-14T23:44:45.253Z,19.74
2018-09-14T23:47:16.355Z,19.60
2018-09-14T23:49:46.711Z,19.81
2018-09-14T23:52:17.144Z,19.79
2018-09-14T23:54:47.499Z,19.91
2018-09-14T23:57:18.399Z,19.97
2018-09-14T23:59:49.223Z,19.74
